createdAt,value
2019-04-29T00:00:55.144Z,49.74
2019-04-29T00:01:55.233Z,49.55
2019-04-29T00:02:55.210Z,49.55
2019-04-29T00:03:55.239Z,49.55
2019-04-29T00:04:55.277Z,49.63
2019-04-29T00:05:55.367Z,50.10
2019-04-29T00:06:55.382Z,49.63
2019-04-29T00:07:55.713Z,49.72
2019-04-29T00:08:55.393Z,50.20
2019-04-29T00:09:55.502Z,50.10
2019-04-29T00:10:55.619Z,50.01
2019-04-29T00:11:55.535Z,50.01
2019-04-29T00:12:55.521Z,50.87
2019-04-29T00:13:55.544Z,50.78
2019-04-29T00:14:55.880Z,50.68
2019-04-29T00:15:55.606Z,50.59
2019-04-29T00:16:55.715Z,50.66
2019-04-29T00:17:55.721Z,50.95
2019-04-29T00:18:55.762Z,50.97
2019-04-29T00:20:55.771Z,50.85
2019-04-29T00:21:56.148Z,51.07
2019-04-29T00:22:55.877Z,50.76
2019-04-29T00:24:03.585Z,51.14
2019-04-29T00:24:55.909Z,51.23
2019-04-29T00:25:55.918Z,50.95
2019-04-29T00:26:55.998Z,51.04
2019-04-29T00:27:55.974Z,51.14
2019-04-29T00:28:56.363Z,50.95
2019-04-29T00:29:56.191Z,50.76
2019-04-29T00:30:56.117Z,51.33
2019-04-29T00:31:56.176Z,51.33
2019-04-29T00:32:56.129Z,51.33
2019-04-29T00:33:56.162Z,51.14
2019-04-29T00:34:56.240Z,51.23
2019-04-29T00:35:56.373Z,50.85
2019-04-29T00:36:56.303Z,51.14
2019-04-29T00:37:56.338Z,51.53
2019-04-29T00:38:56.316Z,51.43
2019-04-29T00:39:56.343Z,51.33
2019-04-29T00:40:56.372Z,51.40
2019-04-29T00:41:57.051Z,51.33
2019-04-29T00:42:56.492Z,51.53
2019-04-29T00:43:56.522Z,51.40
2019-04-29T00:44:56.546Z,51.11
2019-04-29T00:45:56.677Z,51.02
2019-04-29T00:46:56.611Z,51.69
2019-04-29T00:48:56.667Z,51.40
2019-04-29T00:49:56.713Z,51.59
2019-04-29T00:50:56.734Z,51.88
2019-04-29T00:51:56.711Z,51.98
2019-04-29T00:52:56.887Z,51.98
2019-04-29T00:54:56.849Z,51.98
2019-04-29T00:55:56.890Z,51.79
2019-04-29T00:56:56.912Z,52.08
2019-04-29T00:57:56.944Z,51.59
2019-04-29T00:58:57.074Z,52.17
2019-04-29T00:59:57.299Z,51.79
2019-04-29T01:00:57.026Z,51.98
2019-04-29T01:01:57.072Z,51.98
2019-04-29T01:02:57.106Z,51.98
2019-04-29T01:03:57.221Z,52.08
2019-04-29T01:04:57.103Z,52.36
2019-04-29T01:05:57.179Z,52.36
2019-04-29T01:06:57.812Z,52.17
2019-04-29T01:07:57.657Z,52.08
2019-04-29T01:08:57.245Z,52.08
2019-04-29T01:09:57.253Z,52.08
2019-04-29T01:10:57.292Z,52.08
2019-04-29T01:11:57.357Z,51.95
2019-04-29T01:12:57.395Z,52.34
2019-04-29T01:13:57.381Z,52.24
2019-04-29T01:14:57.456Z,52.34
2019-04-29T01:15:57.435Z,52.05
2019-04-29T01:16:57.516Z,52.24
2019-04-29T01:17:57.494Z,51.86
2019-04-29T01:18:57.571Z,52.34
2019-04-29T01:19:57.915Z,52.05
2019-04-29T01:20:57.733Z,52.14
2019-04-29T01:21:57.661Z,52.05
2019-04-29T01:22:57.647Z,51.95
2019-04-29T01:23:57.773Z,51.95
2019-04-29T01:24:57.759Z,52.43
2019-04-29T01:25:57.889Z,52.14
2019-04-29T01:26:58.108Z,52.14
2019-04-29T01:27:57.844Z,52.14
2019-04-29T01:28:57.873Z,52.24
2019-04-29T01:29:57.901Z,52.14
2019-04-29T01:30:57.932Z,52.24
2019-04-29T01:31:58.088Z,52.53
2019-04-29T01:32:57.990Z,52.91
2019-04-29T01:33:58.325Z,52.81
2019-04-29T01:34:58.051Z,52.81
2019-04-29T01:35:58.094Z,52.62
2019-04-29T01:36:58.063Z,52.53
2019-04-29T01:37:58.089Z,52.53
2019-04-29T01:38:58.164Z,52.53
2019-04-29T01:39:58.196Z,52.62
2019-04-29T01:41:58.206Z,52.53
2019-04-29T01:42:58.240Z,53.01
2019-04-29T01:43:58.314Z,53.01
2019-04-29T01:44:58.296Z,52.72
2019-04-29T01:45:58.326Z,52.81
2019-04-29T01:46:58.527Z,53.01
2019-04-29T01:47:58.735Z,53.01
2019-04-29T01:48:58.466Z,53.01
2019-04-29T01:49:58.456Z,52.62
2019-04-29T01:50:58.825Z,52.72
2019-04-29T01:51:58.526Z,52.91
2019-04-29T01:52:58.547Z,52.91
2019-04-29T01:53:58.628Z,52.79
2019-04-29T01:54:58.948Z,52.91
2019-04-29T01:55:58.635Z,52.81
2019-04-29T01:56:58.707Z,52.98
2019-04-29T01:57:58.734Z,52.69
2019-04-29T01:58:58.719Z,53.17
2019-04-29T01:59:58.789Z,53.08
2019-04-29T02:00:58.816Z,52.72
2019-04-29T02:01:59.152Z,52.60
2019-04-29T02:02:58.882Z,52.98
2019-04-29T02:03:58.911Z,52.79
2019-04-29T02:04:58.934Z,52.98
2019-04-29T02:05:59.014Z,52.69
2019-04-29T02:07:59.128Z,52.69
2019-04-29T02:08:59.306Z,52.79
2019-04-29T02:09:59.087Z,52.79
2019-04-29T02:10:59.131Z,52.89
2019-04-29T02:11:59.113Z,52.69
2019-04-29T02:12:59.176Z,52.50
2019-04-29T02:14:59.179Z,52.79
2019-04-29T02:15:59.669Z,52.69
2019-04-29T02:16:59.287Z,52.89
2019-04-29T02:17:59.319Z,52.69
2019-04-29T02:18:59.354Z,52.69
2019-04-29T02:19:59.375Z,53.08
2019-04-29T02:20:59.360Z,52.60
2019-04-29T02:21:59.395Z,53.17
2019-04-29T02:22:59.486Z,52.89
2019-04-29T02:23:59.516Z,52.60
2019-04-29T02:25:59.563Z,52.60
2019-04-29T02:26:59.592Z,53.08
2019-04-29T02:27:59.915Z,52.98
2019-04-29T02:28:59.640Z,53.44
2019-04-29T02:29:59.618Z,53.75
2019-04-29T02:30:59.723Z,53.34
2019-04-29T02:31:59.835Z,53.53
2019-04-29T02:32:59.725Z,53.46
2019-04-29T02:33:59.798Z,53.34
2019-04-29T02:34:59.852Z,53.66
2019-04-29T02:35:59.961Z,53.63
2019-04-29T02:36:59.834Z,53.63
2019-04-29T02:37:59.879Z,53.53
2019-04-29T02:39:00.002Z,53.53
2019-04-29T02:40:00.281Z,54.39
2019-04-29T02:40:59.995Z,53.34
2019-04-29T02:41:59.979Z,53.82
2019-04-29T02:43:00.071Z,53.72
2019-04-29T02:44:00.558Z,53.63
2019-04-29T02:45:00.118Z,53.82
2019-04-29T02:46:00.196Z,53.72
2019-04-29T02:48:00.504Z,53.53
2019-04-29T02:49:00.275Z,53.72
2019-04-29T02:51:00.251Z,53.82
2019-04-29T02:52:00.328Z,53.72
2019-04-29T02:53:00.349Z,53.53
2019-04-29T02:54:00.379Z,53.63
2019-04-29T02:55:00.702Z,53.82
2019-04-29T02:56:00.444Z,53.34
2019-04-29T02:57:00.465Z,53.72
2019-04-29T02:58:00.495Z,53.72
2019-04-29T02:59:00.519Z,53.34
2019-04-29T03:00:00.549Z,53.72
2019-04-29T03:01:00.537Z,53.91
2019-04-29T03:02:00.907Z,53.34
2019-04-29T03:03:00.635Z,53.53
2019-04-29T03:04:00.618Z,53.72
2019-04-29T03:05:00.646Z,53.44
2019-04-29T03:06:00.729Z,53.82
2019-04-29T03:07:00.707Z,53.53
2019-04-29T03:08:00.737Z,53.72
2019-04-29T03:09:01.140Z,53.91
2019-04-29T03:10:00.851Z,53.72
2019-04-29T03:11:00.835Z,53.63
2019-04-29T03:12:01.854Z,53.82
2019-04-29T03:13:00.878Z,53.91
2019-04-29T03:14:00.956Z,53.91
2019-04-29T03:15:00.999Z,53.82
2019-04-29T03:16:01.326Z,53.15
2019-04-29T03:17:01.094Z,53.72
2019-04-29T03:18:01.035Z,54.30
2019-04-29T03:19:01.066Z,54.11
2019-04-29T03:20:01.129Z,54.21
2019-04-29T03:21:01.492Z,53.82
2019-04-29T03:22:01.232Z,53.72
2019-04-29T03:23:01.528Z,53.05
2019-04-29T03:24:01.225Z,52.86
2019-04-29T03:27:01.351Z,53.34
2019-04-29T03:28:01.318Z,53.82
2019-04-29T03:29:01.413Z,53.91
2019-04-29T03:30:01.684Z,53.72
2019-04-29T03:31:01.568Z,54.30
2019-04-29T03:32:01.521Z,54.11
2019-04-29T03:33:01.816Z,54.68
2019-04-29T03:34:01.517Z,54.21
2019-04-29T03:35:01.575Z,54.30
2019-04-29T03:36:01.624Z,53.91
2019-04-29T03:37:01.932Z,54.49
2019-04-29T03:38:01.673Z,54.58
2019-04-29T03:39:01.729Z,54.21
2019-04-29T03:40:01.719Z,54.11
2019-04-29T03:41:01.690Z,53.82
2019-04-29T03:42:01.779Z,54.39
2019-04-29T03:43:01.822Z,53.89
2019-04-29T03:44:02.255Z,54.27
2019-04-29T03:45:01.906Z,54.17
2019-04-29T03:46:01.839Z,54.08
2019-04-29T03:47:01.930Z,53.70
2019-04-29T03:48:01.948Z,54.17
2019-04-29T03:49:01.923Z,54.27
2019-04-29T03:50:02.007Z,53.89
2019-04-29T03:51:02.106Z,54.08
2019-04-29T03:52:02.060Z,54.85
2019-04-29T03:54:02.144Z,54.37
2019-04-29T03:55:02.121Z,54.46
2019-04-29T03:56:02.175Z,54.27
2019-04-29T03:57:02.576Z,54.27
2019-04-29T03:59:02.218Z,54.37
2019-04-29T04:00:02.294Z,54.08
2019-04-29T04:01:02.341Z,54.85
2019-04-29T04:02:02.355Z,54.46
2019-04-29T04:03:02.629Z,54.27
2019-04-29T04:05:02.385Z,54.75
2019-04-29T04:06:02.471Z,54.85
2019-04-29T04:07:04.216Z,54.56
2019-04-29T04:08:02.478Z,54.88
2019-04-29T04:09:05.869Z,55.04
2019-04-29T04:10:02.536Z,54.37
2019-04-29T04:11:02.617Z,54.78
2019-04-29T04:12:02.639Z,54.85
2019-04-29T04:13:02.619Z,54.94
2019-04-29T04:14:02.653Z,54.85
2019-04-29T04:15:02.677Z,54.37
2019-04-29T04:16:02.762Z,54.17
2019-04-29T04:17:02.730Z,54.75
2019-04-29T04:18:02.923Z,54.94
2019-04-29T04:20:02.840Z,54.85
2019-04-29T04:21:03.220Z,54.94
2019-04-29T04:22:02.954Z,54.66
2019-04-29T04:24:02.939Z,54.75
2019-04-29T04:25:02.958Z,54.66
2019-04-29T04:26:03.035Z,54.94
2019-04-29T04:27:03.091Z,55.04
2019-04-29T04:28:03.357Z,54.75
2019-04-29T04:30:03.109Z,54.85
2019-04-29T04:31:06.784Z,54.75
2019-04-29T04:32:03.225Z,54.75
2019-04-29T04:34:03.282Z,54.85
2019-04-29T04:35:03.604Z,55.13
2019-04-29T04:36:03.285Z,55.04
2019-04-29T04:38:03.388Z,55.04
2019-04-29T04:39:03.425Z,55.04
2019-04-29T04:40:03.389Z,55.23
2019-04-29T04:41:03.445Z,54.85
2019-04-29T04:42:03.813Z,55.04
2019-04-29T04:43:03.477Z,55.23
2019-04-29T04:44:03.512Z,54.85
2019-04-29T04:45:03.623Z,54.85
2019-04-29T04:46:03.623Z,54.94
2019-04-29T04:47:03.646Z,55.42
2019-04-29T04:48:03.667Z,55.04
2019-04-29T04:49:03.963Z,55.04
2019-04-29T04:50:03.688Z,55.52
2019-04-29T04:51:03.790Z,55.23
2019-04-29T04:53:03.827Z,55.23
2019-04-29T04:54:03.850Z,55.62
2019-04-29T04:55:03.885Z,55.90
2019-04-29T04:56:04.215Z,56.00
2019-04-29T04:57:03.899Z,56.02
2019-04-29T04:58:03.990Z,55.23
2019-04-29T05:00:03.965Z,55.16
2019-04-29T05:01:03.997Z,55.52
2019-04-29T05:02:04.335Z,55.33
2019-04-29T05:03:04.105Z,55.52
2019-04-29T05:04:04.135Z,55.90
2019-04-29T05:05:04.112Z,55.13
2019-04-29T05:06:04.154Z,55.52
2019-04-29T05:07:04.227Z,56.09
2019-04-29T05:08:04.511Z,56.09
2019-04-29T05:10:04.314Z,55.80
2019-04-29T05:11:04.293Z,55.42
2019-04-29T05:12:04.322Z,55.90
2019-04-29T05:13:04.344Z,55.71
2019-04-29T05:14:04.684Z,55.71
2019-04-29T05:15:04.449Z,55.80
2019-04-29T05:16:04.520Z,55.71
2019-04-29T05:17:04.472Z,55.62
2019-04-29T05:18:04.534Z,55.45
2019-04-29T05:19:04.572Z,55.64
2019-04-29T05:20:04.546Z,55.74
2019-04-29T05:21:04.926Z,55.90
2019-04-29T05:22:04.609Z,55.55
2019-04-29T05:23:04.638Z,55.74
2019-04-29T05:25:04.740Z,55.93
2019-04-29T05:26:04.795Z,55.16
2019-04-29T05:27:04.805Z,55.93
2019-04-29T05:28:05.085Z,55.64
2019-04-29T05:29:04.886Z,55.64
2019-04-29T05:30:04.851Z,55.55
2019-04-29T05:31:04.919Z,55.45
2019-04-29T05:32:04.953Z,56.12
2019-04-29T05:33:04.940Z,55.64
2019-04-29T05:34:04.997Z,56.12
2019-04-29T05:35:05.362Z,55.55
2019-04-29T05:36:05.065Z,55.64
2019-04-29T05:37:05.040Z,55.64
2019-04-29T05:38:05.121Z,54.88
2019-04-29T05:40:05.122Z,54.88
2019-04-29T05:41:05.204Z,55.16
2019-04-29T05:42:07.716Z,55.35
2019-04-29T05:43:05.305Z,55.64
2019-04-29T05:44:05.243Z,55.93
2019-04-29T05:45:05.273Z,55.64
2019-04-29T05:46:07.360Z,55.93
2019-04-29T05:47:05.382Z,56.31
2019-04-29T05:48:05.711Z,57.08
2019-04-29T05:49:07.205Z,57.46
2019-04-29T05:50:06.607Z,57.37
2019-04-29T05:51:05.503Z,57.37
2019-04-29T05:53:05.565Z,57.56
2019-04-29T05:54:05.561Z,56.92
2019-04-29T05:55:09.434Z,57.11
2019-04-29T05:56:05.608Z,56.92
2019-04-29T05:57:05.924Z,57.11
2019-04-29T05:58:05.771Z,57.21
2019-04-29T05:59:08.502Z,57.11
2019-04-29T06:00:05.763Z,57.11
2019-04-29T06:01:05.743Z,56.82
2019-04-29T06:02:05.775Z,57.11
2019-04-29T06:03:05.799Z,57.14
2019-04-29T06:04:05.979Z,57.81
2019-04-29T06:05:05.863Z,57.04
2019-04-29T06:06:05.884Z,57.23
2019-04-29T06:07:05.972Z,56.85
2019-04-29T06:08:06.008Z,56.85
2019-04-29T06:09:06.033Z,56.46
2019-04-29T06:10:06.055Z,56.85
2019-04-29T06:11:06.095Z,56.95
2019-04-29T06:12:06.113Z,56.27
2019-04-29T06:13:06.102Z,56.46
2019-04-29T06:14:06.175Z,56.66
2019-04-29T06:15:06.208Z,56.66
2019-04-29T06:16:06.247Z,56.66
2019-04-29T06:17:07.794Z,56.01
2019-04-29T06:18:06.254Z,56.27
2019-04-29T06:19:06.329Z,55.99
2019-04-29T06:20:06.337Z,56.11
2019-04-29T06:21:09.328Z,56.11
2019-04-29T06:22:06.375Z,56.11
2019-04-29T06:23:06.442Z,56.11
2019-04-29T06:24:06.494Z,56.21
2019-04-29T06:25:06.810Z,55.91
2019-04-29T06:26:06.578Z,56.21
2019-04-29T06:27:06.569Z,55.91
2019-04-29T06:28:06.589Z,56.01
2019-04-29T06:29:06.583Z,55.91
2019-04-29T06:30:06.609Z,55.91
2019-04-29T06:31:06.639Z,56.21
2019-04-29T06:32:06.728Z,55.53
2019-04-29T06:33:06.737Z,55.73
2019-04-29T06:34:06.736Z,55.82
2019-04-29T06:35:10.652Z,56.11
2019-04-29T06:36:06.832Z,56.11
2019-04-29T06:37:06.837Z,55.15
2019-04-29T06:38:08.803Z,55.24
2019-04-29T06:39:08.014Z,55.34
2019-04-29T06:40:07.349Z,55.34
2019-04-29T06:41:09.726Z,55.24
2019-04-29T06:42:07.021Z,55.05
2019-04-29T06:43:07.146Z,54.96
2019-04-29T06:44:15.841Z,55.27
2019-04-29T06:45:07.514Z,55.15
2019-04-29T06:47:07.167Z,55.34
2019-04-29T06:48:07.149Z,55.15
2019-04-29T06:49:10.410Z,54.99
2019-04-29T06:50:07.234Z,54.79
2019-04-29T06:51:07.291Z,55.18
2019-04-29T06:52:07.266Z,54.99
2019-04-29T06:53:07.301Z,54.79
2019-04-29T06:54:07.382Z,54.79
2019-04-29T06:56:09.158Z,54.89
2019-04-29T06:57:07.527Z,55.27
2019-04-29T06:58:07.506Z,55.08
2019-04-29T06:59:11.920Z,55.08
2019-04-29T07:01:07.598Z,54.79
2019-04-29T07:02:09.484Z,54.60
2019-04-29T07:03:08.000Z,54.22
2019-04-29T07:04:07.637Z,54.31
2019-04-29T07:05:07.667Z,54.31
2019-04-29T07:06:07.780Z,54.31
2019-04-29T07:08:07.804Z,54.50
2019-04-29T07:09:07.787Z,54.12
2019-04-29T07:10:07.822Z,54.50
2019-04-29T07:11:07.982Z,54.41
2019-04-29T07:15:12.189Z,53.92
2019-04-29T07:16:08.050Z,54.31
2019-04-29T07:17:08.080Z,54.31
2019-04-29T07:18:08.124Z,54.43
2019-04-29T07:19:08.312Z,54.34
2019-04-29T07:20:08.123Z,54.43
2019-04-29T07:21:12.008Z,54.43
2019-04-29T07:22:08.500Z,54.34
2019-04-29T07:23:08.270Z,54.24
2019-04-29T07:24:08.321Z,53.96
2019-04-29T07:25:08.301Z,53.96
2019-04-29T07:26:08.528Z,53.76
2019-04-29T07:27:08.402Z,53.86
2019-04-29T07:28:08.796Z,53.96
2019-04-29T07:29:08.461Z,53.66
2019-04-29T07:31:10.312Z,53.96
2019-04-29T07:34:08.687Z,53.96
2019-04-29T07:35:09.938Z,54.14
2019-04-29T07:36:11.349Z,53.47
2019-04-29T07:37:08.703Z,53.66
2019-04-29T07:38:09.829Z,53.57
2019-04-29T07:39:08.761Z,53.66
2019-04-29T07:40:09.313Z,53.47
2019-04-29T07:41:10.049Z,53.38
2019-04-29T07:42:08.809Z,53.76
2019-04-29T07:44:08.919Z,53.76
2019-04-29T07:45:08.907Z,53.66
2019-04-29T07:46:08.927Z,53.47
2019-04-29T07:47:09.010Z,53.47
2019-04-29T07:48:09.022Z,53.47
2019-04-29T07:49:12.721Z,52.99
2019-04-29T07:50:09.135Z,53.38
2019-04-29T07:51:09.134Z,53.19
2019-04-29T07:52:09.816Z,53.28
2019-04-29T07:53:09.161Z,53.09
2019-04-29T07:54:11.008Z,53.31
2019-04-29T07:55:09.218Z,53.19
2019-04-29T07:56:09.290Z,53.21
2019-04-29T07:57:12.435Z,52.83
2019-04-29T07:58:09.302Z,52.80
2019-04-29T07:59:11.365Z,52.89
2019-04-29T08:00:12.919Z,53.09
2019-04-29T08:01:09.406Z,53.02
2019-04-29T08:02:09.478Z,52.83
2019-04-29T08:03:09.466Z,52.92
2019-04-29T08:04:09.508Z,52.92
2019-04-29T08:05:09.524Z,52.83
2019-04-29T08:06:09.803Z,52.83
2019-04-29T08:07:09.631Z,53.02
2019-04-29T08:08:09.667Z,53.11
2019-04-29T08:09:09.832Z,53.11
2019-04-29T08:10:22.779Z,53.11
2019-04-29T08:11:09.775Z,52.63
2019-04-29T08:12:10.041Z,52.73
2019-04-29T08:13:09.881Z,52.73
2019-04-29T08:14:09.800Z,52.73
2019-04-29T08:15:09.893Z,52.34
2019-04-29T08:16:12.612Z,52.54
2019-04-29T08:17:09.899Z,52.44
2019-04-29T08:18:11.262Z,52.44
2019-04-29T08:19:10.009Z,52.44
2019-04-29T08:20:10.042Z,52.83
2019-04-29T08:21:10.266Z,53.02
2019-04-29T08:22:10.102Z,52.92
2019-04-29T08:23:10.086Z,52.63
2019-04-29T08:24:11.639Z,53.02
2019-04-29T08:25:10.141Z,52.63
2019-04-29T08:26:10.182Z,52.44
2019-04-29T08:27:10.299Z,52.73
2019-04-29T08:28:10.239Z,52.83
2019-04-29T08:29:10.321Z,52.54
2019-04-29T08:30:11.475Z,52.54
2019-04-29T08:31:10.336Z,52.73
2019-04-29T08:32:10.365Z,52.06
2019-04-29T08:33:12.082Z,52.34
2019-04-29T08:34:10.481Z,52.06
2019-04-29T08:35:10.466Z,52.06
2019-04-29T08:36:10.797Z,52.34
2019-04-29T08:37:10.574Z,52.73
2019-04-29T08:38:10.608Z,52.25
2019-04-29T08:39:10.592Z,52.15
2019-04-29T08:40:16.447Z,52.25
2019-04-29T08:41:10.700Z,52.06
2019-04-29T08:42:10.785Z,52.08
2019-04-29T08:43:11.010Z,52.08
2019-04-29T08:44:16.130Z,51.96
2019-04-29T08:45:10.817Z,52.06
2019-04-29T08:47:10.884Z,52.18
2019-04-29T08:48:10.923Z,52.27
2019-04-29T08:49:13.133Z,52.47
2019-04-29T08:50:10.981Z,52.47
2019-04-29T08:51:11.369Z,52.37
2019-04-29T08:52:10.998Z,52.37
2019-04-29T08:54:11.063Z,52.08
2019-04-29T08:55:11.136Z,51.70
2019-04-29T08:56:12.077Z,51.79
2019-04-29T08:57:11.149Z,52.08
2019-04-29T08:58:12.858Z,52.08
2019-04-29T08:59:11.212Z,52.37
2019-04-29T09:00:11.299Z,52.56
2019-04-29T09:01:11.290Z,52.47
2019-04-29T09:02:11.665Z,52.47
2019-04-29T09:03:11.390Z,51.79
2019-04-29T09:04:11.430Z,51.79
2019-04-29T09:05:13.163Z,52.47
2019-04-29T09:06:11.440Z,52.08
2019-04-29T09:07:12.669Z,51.98
2019-04-29T09:08:13.442Z,51.98
2019-04-29T09:09:28.114Z,52.08
2019-04-29T09:10:11.563Z,51.89
2019-04-29T09:11:13.003Z,51.70
2019-04-29T09:12:11.678Z,52.27
2019-04-29T09:13:11.662Z,52.08
2019-04-29T09:14:13.026Z,51.89
2019-04-29T09:15:11.720Z,52.18
2019-04-29T09:16:11.755Z,51.89
2019-04-29T09:17:20.115Z,52.08
2019-04-29T09:18:11.822Z,51.89
2019-04-29T09:19:11.891Z,52.08
2019-04-29T09:20:12.334Z,52.08
2019-04-29T09:21:11.960Z,52.18
2019-04-29T09:22:11.940Z,51.98
2019-04-29T09:23:12.023Z,51.89
2019-04-29T09:24:12.060Z,51.89
2019-04-29T09:25:12.040Z,52.18
2019-04-29T09:26:12.076Z,52.18
2019-04-29T09:27:12.464Z,51.89
2019-04-29T09:28:16.263Z,52.08
2019-04-29T09:29:12.222Z,52.20
2019-04-29T09:30:12.201Z,51.92
2019-04-29T09:31:12.310Z,52.08
2019-04-29T09:32:12.315Z,52.11
2019-04-29T09:33:13.039Z,52.11
2019-04-29T09:34:12.779Z,51.82
2019-04-29T09:35:12.406Z,51.53
2019-04-29T09:36:13.848Z,51.24
2019-04-29T09:37:12.483Z,51.43
2019-04-29T09:38:12.456Z,51.24
2019-04-29T09:40:12.522Z,51.53
2019-04-29T09:41:12.843Z,51.53
2019-04-29T09:42:13.302Z,51.53
2019-04-29T09:46:12.762Z,52.01
2019-04-29T09:47:12.742Z,52.01
2019-04-29T09:48:12.787Z,52.20
2019-04-29T09:49:12.798Z,52.11
2019-04-29T09:50:12.885Z,52.20
2019-04-29T09:51:17.717Z,51.43
2019-04-29T09:52:12.904Z,52.20
2019-04-29T09:53:13.000Z,52.11
2019-04-29T09:54:14.532Z,51.43
2019-04-29T09:55:13.053Z,51.53
2019-04-29T09:56:13.088Z,51.43
2019-04-29T09:57:13.116Z,51.53
2019-04-29T09:58:13.107Z,51.62
2019-04-29T09:59:13.165Z,51.53
2019-04-29T10:00:13.200Z,51.82
2019-04-29T10:01:13.724Z,51.43
2019-04-29T10:03:13.303Z,51.34
2019-04-29T10:04:13.405Z,51.43
2019-04-29T10:05:13.332Z,51.53
2019-04-29T10:07:13.433Z,51.14
2019-04-29T10:08:13.463Z,51.53
2019-04-29T10:10:13.479Z,51.17
2019-04-29T10:11:13.560Z,51.14
2019-04-29T10:12:13.906Z,51.17
2019-04-29T10:14:13.664Z,51.53
2019-04-29T10:15:13.715Z,51.17
2019-04-29T10:16:13.728Z,51.26
2019-04-29T10:18:13.750Z,51.26
2019-04-29T10:19:13.814Z,51.07
2019-04-29T10:20:13.849Z,51.17
2019-04-29T10:21:16.523Z,50.98
2019-04-29T10:22:13.869Z,51.26
2019-04-29T10:23:13.955Z,51.56
2019-04-29T10:25:14.318Z,51.26
2019-04-29T10:27:14.030Z,51.17
2019-04-29T10:28:14.108Z,51.26
2019-04-29T10:29:18.606Z,50.88
2019-04-29T10:30:14.120Z,51.07
2019-04-29T10:31:14.211Z,51.17
2019-04-29T10:32:14.252Z,50.98
2019-04-29T10:33:17.659Z,51.26
2019-04-29T10:34:14.276Z,51.17
2019-04-29T10:35:14.287Z,50.98
2019-04-29T10:36:16.073Z,50.88
2019-04-29T10:37:14.405Z,50.59
2019-04-29T10:38:14.446Z,50.59
2019-04-29T10:39:14.421Z,50.88
2019-04-29T10:40:14.455Z,50.59
2019-04-29T10:41:14.542Z,50.78
2019-04-29T10:42:14.514Z,50.98
2019-04-29T10:43:15.393Z,50.78
2019-04-29T10:44:14.789Z,50.88
2019-04-29T10:45:14.675Z,50.88
2019-04-29T10:46:14.695Z,50.88
2019-04-29T10:48:14.714Z,50.69
2019-04-29T10:49:14.743Z,50.98
2019-04-29T10:50:15.511Z,50.59
2019-04-29T10:51:14.819Z,50.59
2019-04-29T10:52:14.919Z,50.59
2019-04-29T10:53:15.473Z,50.42
2019-04-29T10:55:15.003Z,50.21
2019-04-29T10:56:15.300Z,50.40
2019-04-29T10:57:15.930Z,50.40
2019-04-29T10:58:15.041Z,50.59
2019-04-29T10:59:15.129Z,50.59
2019-04-29T11:00:16.899Z,50.23
2019-04-29T11:01:15.195Z,50.49
2019-04-29T11:02:15.949Z,50.13
2019-04-29T11:03:15.205Z,50.32
2019-04-29T11:04:15.235Z,50.23
2019-04-29T11:05:15.345Z,50.23
2019-04-29T11:06:16.315Z,50.23
2019-04-29T11:07:19.190Z,50.13
2019-04-29T11:08:15.378Z,50.13
2019-04-29T11:09:16.131Z,50.32
2019-04-29T11:10:24.920Z,50.42
2019-04-29T11:11:22.634Z,50.13
2019-04-29T11:12:15.503Z,50.13
2019-04-29T11:13:15.539Z,50.23
2019-04-29T11:14:15.630Z,50.23
2019-04-29T11:15:15.613Z,50.23
2019-04-29T11:16:15.747Z,50.13
2019-04-29T11:17:16.733Z,50.23
2019-04-29T11:18:18.124Z,50.04
2019-04-29T11:19:15.791Z,50.32
2019-04-29T11:20:18.515Z,50.23
2019-04-29T11:21:15.886Z,49.94
2019-04-29T11:22:16.242Z,49.84
2019-04-29T11:23:18.083Z,49.84
2019-04-29T11:24:15.954Z,49.94
2019-04-29T11:25:16.026Z,49.75
2019-04-29T11:26:16.046Z,50.13
2019-04-29T11:27:16.124Z,50.23
2019-04-29T11:28:17.620Z,50.04
2019-04-29T11:29:16.430Z,50.13
2019-04-29T11:30:16.112Z,50.04
2019-04-29T11:31:19.089Z,50.13
2019-04-29T11:32:16.220Z,50.23
2019-04-29T11:33:16.258Z,50.23
2019-04-29T11:34:18.032Z,50.23
2019-04-29T11:35:16.274Z,50.13
2019-04-29T11:36:16.404Z,50.23
2019-04-29T11:37:17.862Z,50.13
2019-04-29T11:38:16.373Z,50.13
2019-04-29T11:39:16.399Z,49.94
2019-04-29T11:40:16.454Z,50.13
2019-04-29T11:41:19.687Z,49.65
2019-04-29T11:42:16.548Z,49.65
2019-04-29T11:43:17.286Z,49.29
2019-04-29T11:44:16.629Z,49.58
2019-04-29T11:45:16.650Z,49.37
2019-04-29T11:46:16.635Z,49.37
2019-04-29T11:47:20.976Z,49.27
2019-04-29T11:49:16.777Z,49.65
2019-04-29T11:50:16.839Z,49.37
2019-04-29T11:51:16.857Z,49.46
2019-04-29T11:52:16.843Z,49.65
2019-04-29T11:54:18.208Z,49.75
2019-04-29T11:55:18.621Z,49.77
2019-04-29T11:56:17.039Z,49.68
2019-04-29T11:57:17.222Z,49.77
2019-04-29T11:58:17.101Z,49.87
2019-04-29T11:59:17.162Z,49.68
2019-04-29T12:00:17.166Z,49.87
2019-04-29T12:01:17.435Z,49.77
2019-04-29T12:02:17.169Z,49.87
2019-04-29T12:03:19.004Z,49.87
2019-04-29T12:05:17.318Z,49.96
2019-04-29T12:06:20.811Z,49.77
2019-04-29T12:07:17.339Z,49.96
2019-04-29T12:08:18.461Z,49.96
2019-04-29T12:09:17.431Z,49.68
2019-04-29T12:10:17.503Z,49.58
2019-04-29T12:11:17.535Z,49.19
2019-04-29T12:12:17.501Z,49.48
2019-04-29T12:13:18.945Z,49.39
2019-04-29T12:14:17.571Z,49.39
2019-04-29T12:15:17.952Z,49.10
2019-04-29T12:16:19.764Z,49.00
2019-04-29T12:17:17.731Z,49.10
2019-04-29T12:18:17.714Z,49.00
2019-04-29T12:19:21.317Z,49.39
2019-04-29T12:20:17.781Z,49.29
2019-04-29T12:21:17.837Z,49.48
2019-04-29T12:22:28.176Z,49.48
2019-04-29T12:23:17.924Z,49.39
2019-04-29T12:24:17.963Z,49.68
2019-04-29T12:25:18.007Z,49.39
2019-04-29T12:26:18.123Z,49.48
2019-04-29T12:27:19.819Z,49.58
2019-04-29T12:28:19.351Z,49.39
2019-04-29T12:29:19.482Z,49.58
2019-04-29T12:30:18.215Z,49.29
2019-04-29T12:31:18.197Z,49.39
2019-04-29T12:32:20.568Z,49.39
2019-04-29T12:33:18.268Z,49.58
2019-04-29T12:34:18.248Z,49.39
2019-04-29T12:35:21.712Z,49.58
2019-04-29T12:36:18.416Z,49.10
2019-04-29T12:37:18.401Z,49.00
2019-04-29T12:38:18.471Z,48.71
2019-04-29T12:39:21.584Z,48.83
2019-04-29T12:40:18.501Z,48.71
2019-04-29T12:41:21.014Z,48.71
2019-04-29T12:42:18.519Z,48.71
2019-04-29T12:43:18.606Z,49.00
2019-04-29T12:44:18.595Z,48.90
2019-04-29T12:45:19.812Z,48.93
2019-04-29T12:46:18.656Z,48.83
2019-04-29T12:47:26.349Z,49.19
2019-04-29T12:48:25.078Z,48.93
2019-04-29T12:49:18.754Z,48.93
2019-04-29T12:50:21.590Z,49.02
2019-04-29T12:51:18.871Z,48.93
2019-04-29T12:52:18.974Z,48.93
2019-04-29T12:53:18.912Z,48.93
2019-04-29T12:54:18.933Z,48.93
2019-04-29T12:55:21.912Z,49.02
2019-04-29T12:56:19.028Z,48.64
2019-04-29T12:57:23.669Z,48.83
2019-04-29T12:58:23.818Z,48.83
2019-04-29T12:59:19.402Z,48.83
2019-04-29T13:00:19.185Z,48.74
2019-04-29T13:01:19.279Z,48.44
2019-04-29T13:02:19.976Z,48.54
2019-04-29T13:03:19.298Z,48.54
2019-04-29T13:04:19.481Z,48.54
2019-04-29T13:05:19.351Z,48.44
2019-04-29T13:06:23.903Z,48.83
2019-04-29T13:07:19.428Z,48.54
2019-04-29T13:08:19.461Z,48.44
2019-04-29T13:09:19.449Z,48.54
2019-04-29T13:10:19.479Z,48.54
2019-04-29T13:11:20.923Z,48.44
2019-04-29T13:12:20.152Z,48.64
2019-04-29T13:13:20.632Z,48.74
2019-04-29T13:14:19.629Z,48.74
2019-04-29T13:15:19.703Z,48.74
2019-04-29T13:16:20.609Z,48.64
2019-04-29T13:17:19.721Z,48.54
2019-04-29T13:20:19.826Z,48.54
2019-04-29T13:21:20.204Z,48.44
2019-04-29T13:22:19.896Z,48.25
2019-04-29T13:23:33.218Z,48.44
2019-04-29T13:25:20.872Z,48.44
2019-04-29T13:26:27.840Z,48.64
2019-04-29T13:27:20.777Z,48.64
2019-04-29T13:28:29.832Z,48.44
2019-04-29T13:29:27.459Z,48.54
2019-04-29T13:30:20.217Z,48.74
2019-04-29T13:31:20.421Z,48.44
2019-04-29T13:32:20.616Z,48.64
2019-04-29T13:33:20.327Z,48.54
2019-04-29T13:34:24.629Z,48.54
2019-04-29T13:35:20.398Z,48.64
2019-04-29T13:36:25.976Z,48.54
2019-04-29T13:37:20.597Z,48.64
2019-04-29T13:38:20.511Z,48.64
2019-04-29T13:39:38.122Z,48.74
2019-04-29T13:40:20.507Z,48.83
2019-04-29T13:41:24.287Z,48.35
2019-04-29T13:42:20.890Z,48.44
2019-04-29T13:43:25.768Z,48.57
2019-04-29T13:44:21.287Z,48.57
2019-04-29T13:45:24.871Z,48.76
2019-04-29T13:46:20.719Z,48.18
2019-04-29T13:47:28.389Z,48.18
2019-04-29T13:48:21.003Z,48.08
2019-04-29T13:49:20.821Z,47.70
2019-04-29T13:50:38.229Z,47.60